METAR Formatted Surface Weather Observation
Issued by NWS

Home | Current Version | Previous Version | Text Only | Print | Product List | Glossary On
Versions: 1 2 3 4 5 6 7 8 9 10 11 12 13 14 15 16 17 18 19 20 21 22 23 24 25 26 27 28 29 30 31 32 33 34 35 36
000
SAUS45 KLKN 180558
MTRWMC
METAR KWMC 180556Z AUTO 34010G18KT 10SM FEW075 SCT100 12/07 A2987
RMK AO2 RAE12 SLP084 P0000 60003 T01170067 10250 20117 53031 TSNO



USA.gov is the U.S. government's official web portal to all federal, state and local government web resources and services.